createdAt,value
2022-08-24T00:00:19.034Z,7.17
2022-08-24T00:02:53.069Z,9.33
2022-08-24T00:05:24.889Z,9.85
2022-08-24T00:07:56.424Z,6.10
2022-08-24T00:10:29.993Z,9.63
2022-08-24T00:13:03.241Z,8.30
2022-08-24T00:15:37.765Z,9.95
2022-08-24T00:18:09.006Z,7.40
2022-08-24T00:20:45.139Z,9.98
2022-08-24T00:23:15.696Z,6.95
2022-08-24T00:25:49.309Z,9.48
2022-08-24T00:28:20.556Z,10.50
2022-08-24T00:30:51.584Z,10.82
2022-08-24T00:33:22.875Z,7.97
2022-08-24T00:35:53.738Z,7.67
2022-08-24T00:38:27.847Z,6.85
2022-08-24T00:41:00.262Z,10.78
2022-08-24T00:43:32.434Z,8.70
2022-08-24T00:46:05.876Z,9.03
2022-08-24T00:48:39.424Z,9.15
2022-08-24T00:51:13.498Z,10.68
2022-08-24T00:53:47.577Z,8.65
2022-08-24T00:56:20.741Z,7.87
2022-08-24T00:58:57.109Z,7.37
2022-08-24T01:01:27.096Z,9.75
2022-08-24T01:03:59.637Z,9.70
2022-08-24T01:06:30.952Z,9.23
2022-08-24T01:09:02.705Z,8.60
2022-08-24T01:11:35.226Z,9.58
2022-08-24T01:14:09.032Z,10.63
2022-08-24T01:16:43.382Z,7.85
2022-08-24T01:19:16.649Z,8.30
2022-08-24T01:21:51.123Z,10.53
2022-08-24T01:24:25.034Z,9.48
2022-08-24T01:26:55.765Z,7.08
2022-08-24T01:29:29.183Z,7.35
2022-08-24T01:32:03.321Z,13.30
2022-08-24T01:34:34.132Z,9.23
2022-08-24T01:37:07.616Z,5.95
2022-08-24T01:39:40.311Z,7.62
2022-08-24T01:42:12.254Z,8.43
2022-08-24T01:44:45.390Z,8.45
2022-08-24T01:47:19.218Z,8.73
2022-08-24T01:49:54.114Z,9.65
2022-08-24T01:52:38.865Z,11.68
2022-08-24T01:55:00.365Z,7.58
2022-08-24T01:57:32.480Z,9.13
2022-08-24T02:00:04.641Z,7.65
2022-08-24T02:02:37.202Z,7.67
2022-08-24T02:05:12.241Z,10.15
2022-08-24T02:07:43.970Z,8.08
2022-08-24T02:10:16.776Z,8.73
2022-08-24T02:12:51.472Z,10.50
2022-08-24T02:15:24.363Z,8.88
2022-08-24T02:17:55.720Z,8.63
2022-08-24T02:20:27.067Z,8.13
2022-08-24T02:22:58.304Z,7.87
2022-08-24T02:25:31.012Z,9.00
2022-08-24T02:28:03.371Z,10.75
2022-08-24T02:30:35.133Z,6.67
2022-08-24T02:33:06.082Z,7.28
2022-08-24T02:35:37.036Z,6.58
2022-08-24T02:38:07.910Z,9.28
2022-08-24T02:40:40.035Z,6.80
2022-08-24T02:43:10.811Z,7.65
2022-08-24T02:45:46.137Z,9.75
2022-08-24T02:48:16.937Z,11.28
2022-08-24T02:50:50.350Z,8.85
2022-08-24T02:53:24.074Z,12.40
2022-08-24T02:55:55.059Z,8.33
2022-08-24T02:58:25.917Z,9.05
2022-08-24T03:00:56.845Z,5.58
2022-08-24T03:03:27.874Z,6.72
2022-08-24T03:05:58.710Z,9.33
2022-08-24T03:08:29.759Z,8.05
2022-08-24T03:11:01.646Z,4.55
2022-08-24T03:13:33.292Z,5.67
2022-08-24T03:16:07.852Z,6.97
2022-08-24T03:18:39.542Z,12.53
2022-08-24T03:21:12.131Z,9.38
2022-08-24T03:23:42.915Z,8.68
2022-08-24T03:26:14.365Z,11.55
2022-08-24T03:28:45.563Z,12.53
2022-08-24T03:31:16.711Z,6.72
2022-08-24T03:33:54.560Z,5.97
2022-08-24T03:36:25.649Z,6.25
2022-08-24T03:38:56.558Z,10.58
2022-08-24T03:41:28.703Z,4.72
2022-08-24T03:44:00.310Z,7.12
2022-08-24T03:46:33.585Z,4.72
2022-08-24T03:49:05.689Z,7.08
2022-08-24T03:51:37.765Z,6.80
2022-08-24T03:54:12.128Z,6.22
2022-08-24T03:57:02.960Z,8.38
2022-08-24T03:59:33.692Z,5.40
2022-08-24T04:02:05.941Z,10.90
2022-08-24T04:04:38.350Z,8.65
2022-08-24T04:07:09.072Z,9.68
2022-08-24T04:09:39.951Z,5.90
2022-08-24T04:12:11.293Z,7.17
2022-08-24T04:14:42.504Z,6.12
2022-08-24T04:17:13.922Z,5.70
2022-08-24T04:19:46.154Z,5.55
2022-08-24T04:22:20.028Z,7.20
2022-08-24T04:24:52.039Z,6.30
2022-08-24T04:27:23.554Z,6.80
2022-08-24T04:29:54.702Z,8.38
2022-08-24T04:32:27.283Z,7.67
2022-08-24T04:34:59.365Z,10.43
2022-08-24T04:37:30.342Z,8.55
2022-08-24T04:40:01.800Z,7.45
2022-08-24T04:42:34.610Z,6.22
2022-08-24T04:45:05.755Z,9.78
2022-08-24T04:47:36.905Z,4.50
2022-08-24T04:50:08.368Z,7.62
2022-08-24T04:52:39.111Z,8.65
2022-08-24T04:55:33.437Z,7.67
2022-08-24T04:58:03.862Z,6.72
2022-08-24T05:00:35.091Z,7.90
2022-08-24T05:03:06.460Z,6.35
2022-08-24T05:05:37.689Z,7.97
2022-08-24T05:08:08.860Z,5.40
2022-08-24T05:10:41.666Z,6.58
2022-08-24T05:13:13.629Z,4.40
2022-08-24T05:15:46.627Z,8.93
2022-08-24T05:18:19.259Z,6.97
2022-08-24T05:20:50.624Z,6.50
2022-08-24T05:23:22.735Z,7.30
2022-08-24T05:25:56.268Z,5.70
2022-08-24T05:28:27.271Z,7.85
2022-08-24T05:30:58.971Z,11.60
2022-08-24T05:33:29.819Z,10.32
2022-08-24T05:36:00.451Z,10.03
2022-08-24T05:38:31.624Z,7.15
2022-08-24T05:41:04.921Z,6.60
2022-08-24T05:43:37.332Z,7.90
2022-08-24T05:46:08.681Z,8.43
2022-08-24T05:48:40.090Z,10.48
2022-08-24T05:51:13.439Z,6.22
2022-08-24T05:53:46.986Z,6.90
2022-08-24T05:56:20.662Z,6.87
2022-08-24T05:58:53.255Z,6.33
2022-08-24T06:01:29.255Z,9.43
2022-08-24T06:04:00.396Z,7.85
2022-08-24T06:06:32.867Z,5.78
2022-08-24T06:09:04.299Z,8.30
2022-08-24T06:11:38.537Z,5.05
2022-08-24T06:14:12.263Z,6.20
2022-08-24T06:16:46.500Z,7.30
2022-08-24T06:19:20.417Z,11.40
2022-08-24T06:21:54.356Z,9.20
2022-08-24T06:24:27.849Z,8.88
2022-08-24T06:27:02.158Z,12.65
2022-08-24T06:29:34.673Z,9.00
2022-08-24T06:32:06.222Z,6.55
2022-08-24T06:34:37.956Z,11.08
2022-08-24T06:37:11.940Z,7.15
2022-08-24T06:39:47.721Z,13.18
2022-08-24T06:45:07.468Z,5.97
2022-08-24T06:47:38.281Z,8.15
2022-08-24T06:50:09.846Z,5.45
2022-08-24T06:52:40.806Z,9.03
2022-08-24T06:55:14.755Z,7.37
2022-08-24T07:00:38.141Z,9.60
2022-08-24T07:03:09.156Z,8.28
2022-08-24T07:05:42.191Z,9.85
2022-08-24T07:08:15.685Z,9.20
2022-08-24T07:10:47.217Z,7.33
2022-08-24T07:13:18.421Z,7.97
2022-08-24T07:15:49.631Z,5.65
2022-08-24T07:18:22.234Z,5.70
2022-08-24T07:20:55.593Z,6.12
2022-08-24T07:23:41.201Z,5.72
2022-08-24T07:25:59.163Z,7.03
2022-08-24T07:28:32.139Z,5.80
2022-08-24T07:31:03.370Z,5.53
2022-08-24T07:33:35.093Z,5.62
2022-08-24T07:36:06.270Z,8.03
2022-08-24T07:38:39.532Z,7.80
2022-08-24T07:41:36.578Z,5.42
2022-08-24T07:43:44.891Z,8.73
2022-08-24T07:46:15.876Z,6.75
2022-08-24T07:48:48.472Z,9.00
2022-08-24T07:51:21.550Z,4.55
2022-08-24T07:53:54.174Z,5.97
2022-08-24T07:56:25.131Z,5.58
2022-08-24T07:58:55.964Z,6.80
2022-08-24T08:01:27.303Z,7.70
2022-08-24T08:04:00.188Z,5.35
2022-08-24T08:06:34.311Z,8.20
2022-08-24T08:09:06.478Z,3.67
2022-08-24T08:11:38.444Z,5.40
2022-08-24T08:14:09.430Z,5.50
2022-08-24T08:16:40.475Z,4.00
2022-08-24T08:19:12.186Z,8.80
2022-08-24T08:21:46.913Z,5.37
2022-08-24T08:24:20.495Z,4.40
2022-08-24T08:26:52.770Z,5.70
2022-08-24T08:29:25.144Z,9.08
2022-08-24T08:32:13.727Z,5.35
2022-08-24T08:34:45.332Z,7.60
2022-08-24T08:37:20.684Z,11.88
2022-08-24T08:39:51.779Z,4.37
2022-08-24T08:42:29.067Z,7.00
2022-08-24T08:45:04.180Z,7.25
2022-08-24T08:47:37.251Z,6.42
2022-08-24T08:50:12.844Z,4.95
2022-08-24T08:52:46.124Z,7.10
2022-08-24T08:55:19.385Z,5.70
2022-08-24T08:57:55.751Z,5.35
2022-08-24T09:03:23.413Z,6.22
2022-08-24T09:11:42.110Z,3.87
2022-08-24T09:14:13.789Z,3.83
2022-08-24T09:16:47.114Z,5.37
2022-08-24T09:19:20.623Z,7.85
2022-08-24T09:21:55.185Z,4.85
2022-08-24T09:24:29.000Z,5.58
2022-08-24T09:27:02.215Z,5.47
2022-08-24T09:29:35.518Z,6.62
2022-08-24T09:32:12.115Z,13.28
2022-08-24T09:34:43.746Z,8.73
2022-08-24T09:37:17.689Z,6.17
2022-08-24T09:39:52.657Z,4.37
2022-08-24T09:42:26.901Z,3.67
2022-08-24T09:44:58.649Z,5.55
2022-08-24T09:47:30.628Z,4.92
2022-08-24T09:50:03.799Z,5.20
2022-08-24T09:52:37.914Z,7.65
2022-08-24T09:55:11.306Z,5.47
2022-08-24T09:58:01.022Z,6.65
2022-08-24T10:00:17.864Z,6.83
2022-08-24T10:05:43.951Z,6.20
2022-08-24T10:08:17.917Z,6.58
2022-08-24T10:10:51.764Z,6.75
2022-08-24T10:13:23.624Z,7.37
2022-08-24T10:15:56.933Z,6.08
2022-08-24T10:18:32.271Z,8.33
2022-08-24T10:21:14.766Z,6.20
2022-08-24T10:23:42.634Z,6.20
2022-08-24T10:26:19.921Z,5.30
2022-08-24T10:28:55.571Z,5.65
2022-08-24T10:31:28.762Z,5.77
2022-08-24T10:34:03.387Z,5.90
2022-08-24T10:36:42.627Z,7.28
2022-08-24T10:51:11.392Z,9.48
2022-08-24T10:53:46.520Z,5.53
2022-08-24T10:56:22.718Z,6.53
2022-08-24T10:58:54.065Z,8.27
2022-08-24T11:01:27.984Z,9.43
2022-08-24T11:03:59.960Z,6.75
2022-08-24T11:06:33.373Z,5.65
2022-08-24T11:09:06.500Z,9.65
2022-08-24T11:11:43.099Z,6.83
2022-08-24T11:14:20.788Z,7.78
2022-08-24T11:16:57.674Z,6.15
2022-08-24T11:19:28.957Z,6.25
2022-08-24T11:22:03.530Z,7.08
2022-08-24T11:24:36.916Z,8.05
2022-08-24T11:27:10.230Z,9.58
2022-08-24T11:29:43.606Z,7.75
2022-08-24T11:32:16.837Z,5.83
2022-08-24T11:34:48.981Z,9.40
2022-08-24T11:37:24.933Z,10.00
2022-08-24T11:39:55.909Z,6.22
2022-08-24T11:42:32.615Z,7.33
2022-08-24T11:45:06.036Z,6.05
2022-08-24T11:47:40.565Z,11.22
2022-08-24T11:50:15.284Z,6.53
2022-08-24T11:52:48.599Z,8.38
2022-08-24T11:55:24.274Z,12.60
2022-08-24T11:57:57.908Z,14.03
2022-08-24T12:00:31.568Z,10.63
2022-08-24T12:03:03.844Z,7.80
2022-08-24T12:05:37.127Z,9.53
2022-08-24T12:08:09.113Z,5.97
2022-08-24T12:10:42.465Z,8.63
2022-08-24T12:13:16.268Z,10.05
2022-08-24T12:15:52.286Z,10.75
2022-08-24T12:18:25.544Z,6.03
2022-08-24T12:20:57.659Z,7.80
2022-08-24T12:23:30.919Z,7.37
2022-08-24T12:26:04.591Z,10.68
2022-08-24T12:28:38.189Z,10.88
2022-08-24T12:31:11.637Z,7.28
2022-08-24T12:33:44.469Z,10.35
2022-08-24T12:36:17.683Z,7.85
2022-08-24T12:38:51.359Z,6.85
2022-08-24T12:41:25.908Z,5.90
2022-08-24T12:43:59.221Z,7.28
2022-08-24T12:46:30.787Z,9.48
2022-08-24T12:49:05.474Z,12.00
2022-08-24T12:51:38.095Z,9.35
2022-08-24T12:54:11.325Z,9.55
2022-08-24T12:56:42.919Z,10.40
2022-08-24T12:59:18.434Z,8.95
2022-08-24T13:01:52.416Z,8.70
2022-08-24T13:04:26.354Z,10.80
2022-08-24T13:06:59.905Z,6.83
2022-08-24T13:09:38.202Z,8.48
2022-08-24T13:12:10.544Z,7.78
2022-08-24T13:14:46.829Z,7.65
2022-08-24T13:17:27.018Z,8.40
2022-08-24T13:20:01.038Z,8.60
2022-08-24T13:22:37.719Z,6.80
2022-08-24T13:25:10.915Z,8.33
2022-08-24T13:27:51.446Z,11.73
2022-08-24T13:30:30.764Z,7.45
2022-08-24T13:33:04.472Z,9.93
2022-08-24T13:35:41.723Z,10.00
2022-08-24T13:39:00.626Z,9.98
2022-08-24T13:41:23.746Z,10.08
2022-08-24T13:44:00.388Z,14.15
2022-08-24T13:46:38.456Z,14.00
2022-08-24T13:49:12.333Z,11.93
2022-08-24T13:51:50.036Z,11.57
2022-08-24T13:54:24.523Z,13.50
2022-08-24T13:57:00.764Z,12.93
2022-08-24T13:59:34.935Z,11.85
2022-08-24T14:02:08.154Z,13.48
2022-08-24T14:04:47.209Z,12.98
2022-08-24T14:07:20.421Z,13.03
2022-08-24T14:09:57.102Z,13.72
2022-08-24T14:12:31.736Z,10.95
2022-08-24T14:15:16.869Z,11.95
2022-08-24T14:17:55.372Z,11.18
2022-08-24T14:20:29.410Z,13.08
2022-08-24T14:23:01.950Z,11.33
2022-08-24T14:25:36.810Z,16.55
2022-08-24T14:28:10.236Z,11.22
2022-08-24T14:30:44.933Z,12.63
2022-08-24T14:33:21.112Z,14.07
2022-08-24T14:35:57.225Z,12.00
2022-08-24T14:38:36.492Z,12.10
2022-08-24T14:41:18.141Z,10.95
2022-08-24T14:43:51.436Z,10.00
2022-08-24T14:46:29.314Z,14.20
2022-08-24T14:48:58.837Z,11.08
2022-08-24T14:51:33.337Z,17.00
2022-08-24T14:54:06.540Z,11.25
2022-08-24T14:56:40.420Z,18.23
2022-08-24T14:59:16.058Z,11.55
2022-08-24T15:01:49.111Z,14.50
2022-08-24T15:04:37.217Z,13.65
2022-08-24T15:06:59.032Z,11.33
2022-08-24T15:09:33.647Z,11.95
2022-08-24T15:12:09.419Z,10.85
2022-08-24T15:14:46.007Z,11.40
2022-08-24T15:19:48.652Z,11.22
2022-08-24T15:22:22.359Z,10.32
2022-08-24T15:25:02.428Z,11.97
2022-08-24T15:27:35.839Z,11.93
2022-08-24T15:30:11.044Z,13.08
2022-08-24T15:32:46.454Z,12.13
2022-08-24T15:35:19.936Z,9.50
2022-08-24T15:37:50.876Z,13.90
2022-08-24T15:40:25.182Z,12.47
2022-08-24T15:42:57.055Z,9.35
2022-08-24T15:45:31.402Z,11.85
2022-08-24T15:48:04.904Z,12.00
2022-08-24T15:50:43.640Z,10.48
2022-08-24T15:53:17.400Z,10.13
2022-08-24T15:55:53.390Z,11.63
2022-08-24T15:58:29.404Z,13.00
2022-08-24T16:01:04.168Z,16.10
2022-08-24T16:03:37.440Z,12.82
2022-08-24T16:06:13.115Z,12.98
2022-08-24T16:08:46.330Z,13.98
2022-08-24T16:11:21.023Z,11.48
2022-08-24T16:13:54.746Z,13.00
2022-08-24T16:16:30.173Z,16.90
2022-08-24T16:19:12.775Z,12.85
2022-08-24T16:21:49.892Z,13.62
2022-08-24T16:24:22.947Z,11.18
2022-08-24T16:26:56.558Z,15.85
2022-08-24T16:29:30.150Z,13.58
2022-08-24T16:32:06.459Z,14.68
2022-08-24T16:34:40.529Z,15.60
2022-08-24T16:37:15.210Z,18.80
2022-08-24T16:39:52.946Z,17.42
2022-08-24T16:42:26.658Z,17.55
2022-08-24T16:47:36.139Z,15.08
2022-08-24T16:50:14.738Z,17.85
2022-08-24T16:53:11.324Z,16.48
2022-08-24T16:55:36.993Z,16.87
2022-08-24T16:58:11.718Z,12.82
2022-08-24T17:00:45.215Z,13.32
2022-08-24T17:03:19.536Z,14.13
2022-08-24T17:05:50.598Z,14.35
2022-08-24T17:08:21.666Z,12.70
2022-08-24T17:10:54.306Z,14.78
2022-08-24T17:13:49.030Z,12.82
2022-08-24T17:16:18.237Z,11.93
2022-08-24T17:18:51.320Z,12.50
2022-08-24T17:21:25.500Z,12.55
2022-08-24T17:30:27.095Z,6.90
2022-08-24T17:33:28.968Z,6.42
2022-08-24T17:39:14.480Z,5.70
2022-08-24T17:41:49.547Z,4.28
2022-08-24T17:44:24.128Z,5.65
2022-08-24T17:47:00.498Z,5.25
2022-08-24T17:49:33.625Z,5.60
2022-08-24T17:52:12.715Z,3.10
2022-08-24T17:54:44.723Z,5.05
2022-08-24T17:57:20.160Z,4.60
2022-08-24T17:59:52.262Z,4.40
2022-08-24T18:02:26.395Z,4.87
2022-08-24T18:04:57.517Z,3.87
2022-08-24T18:07:52.083Z,4.90
2022-08-24T18:10:18.318Z,5.33
2022-08-24T18:12:59.231Z,5.70
2022-08-24T18:15:35.405Z,6.72
2022-08-24T18:17:57.841Z,6.72
2022-08-24T18:20:32.631Z,4.55
2022-08-24T18:23:03.983Z,5.60
2022-08-24T18:25:40.702Z,4.83
2022-08-24T18:28:12.796Z,5.30
2022-08-24T18:30:45.064Z,5.00
2022-08-24T18:33:16.805Z,4.87
2022-08-24T18:35:51.938Z,4.28
2022-08-24T18:38:22.964Z,4.70
2022-08-24T18:40:55.701Z,4.87
2022-08-24T18:43:27.436Z,5.12
2022-08-24T18:45:58.704Z,4.55
2022-08-24T18:48:31.944Z,6.03
2022-08-24T18:51:04.481Z,5.55
2022-08-24T18:53:36.803Z,5.60
2022-08-24T18:56:12.280Z,5.03
2022-08-24T18:58:40.927Z,5.85
2022-08-24T19:01:13.309Z,6.58
2022-08-24T19:03:48.360Z,4.95
2022-08-24T19:06:25.869Z,6.55
2022-08-24T19:08:56.736Z,5.83
2022-08-24T19:11:30.478Z,6.55
2022-08-24T19:14:01.445Z,5.85
2022-08-24T19:16:32.954Z,6.47
2022-08-24T19:19:04.217Z,4.95
2022-08-24T19:21:42.665Z,4.47
2022-08-24T19:24:14.828Z,4.47
2022-08-24T19:26:45.755Z,6.10
2022-08-24T19:29:33.243Z,3.60
2022-08-24T19:31:56.367Z,4.28
2022-08-24T19:34:27.659Z,3.20
2022-08-24T19:37:00.467Z,5.78
2022-08-24T19:39:32.322Z,3.22
2022-08-24T19:51:25.442Z,3.05
2022-08-24T19:53:57.708Z,4.33
2022-08-24T19:56:28.751Z,3.02
2022-08-24T19:59:02.355Z,3.33
2022-08-24T20:01:36.274Z,3.47
2022-08-24T20:04:10.471Z,5.12
2022-08-24T20:06:43.295Z,6.10
2022-08-24T20:09:20.562Z,3.87
2022-08-24T20:11:49.120Z,3.85
2022-08-24T20:14:20.671Z,6.00
2022-08-24T20:16:52.527Z,5.67
2022-08-24T20:19:24.803Z,4.08
2022-08-24T20:21:55.857Z,5.60
2022-08-24T20:24:27.634Z,4.10
2022-08-24T20:26:59.081Z,4.62
2022-08-24T20:29:31.871Z,5.33
2022-08-24T20:32:03.765Z,3.70
2022-08-24T20:34:36.226Z,4.47
2022-08-24T20:37:07.525Z,4.33
2022-08-24T20:39:38.455Z,5.40
2022-08-24T20:42:16.477Z,4.35
2022-08-24T20:44:46.068Z,3.47
2022-08-24T20:47:17.608Z,3.47
2022-08-24T20:49:49.295Z,3.00
2022-08-24T20:52:23.194Z,4.50
2022-08-24T20:54:54.026Z,5.15
2022-08-24T20:57:29.901Z,3.25
2022-08-24T21:00:01.178Z,2.70
2022-08-24T21:02:32.231Z,3.10
2022-08-24T21:05:03.224Z,4.60
2022-08-24T21:07:34.572Z,3.12
2022-08-24T21:10:07.276Z,3.72
2022-08-24T21:12:38.281Z,3.85
2022-08-24T21:15:09.642Z,3.83
2022-08-24T21:17:41.018Z,3.25
2022-08-24T21:20:14.050Z,5.30
2022-08-24T21:22:46.718Z,3.45
2022-08-24T21:25:19.012Z,2.85
2022-08-24T21:27:51.250Z,3.50
2022-08-24T21:30:24.145Z,3.65
2022-08-24T21:32:56.360Z,2.00
2022-08-24T21:35:27.598Z,2.98
2022-08-24T21:38:00.529Z,3.58
2022-08-24T21:40:32.098Z,5.67
2022-08-24T21:43:03.365Z,3.60
2022-08-24T21:45:35.982Z,3.12
2022-08-24T21:48:07.374Z,3.60
2022-08-24T21:50:38.338Z,3.25
2022-08-24T21:53:09.289Z,3.83
2022-08-24T21:55:41.296Z,3.92
2022-08-24T21:58:13.826Z,3.50
2022-08-24T22:00:45.269Z,2.90
2022-08-24T22:03:16.218Z,3.58
2022-08-24T22:05:47.282Z,3.92
2022-08-24T22:08:18.708Z,4.12
2022-08-24T22:10:51.548Z,2.70
2022-08-24T22:13:22.373Z,3.33
2022-08-24T22:15:53.579Z,4.78
2022-08-24T22:18:24.609Z,3.10
2022-08-24T22:20:55.890Z,4.25
2022-08-24T22:23:32.427Z,4.47
2022-08-24T22:26:03.879Z,2.50
2022-08-24T22:28:36.915Z,3.80
2022-08-24T22:31:10.779Z,5.45
2022-08-24T22:33:41.591Z,4.55
2022-08-24T22:36:13.802Z,5.80
2022-08-24T22:38:45.766Z,2.70
2022-08-24T22:41:17.326Z,3.02
2022-08-24T22:43:50.641Z,4.47
2022-08-24T22:46:23.935Z,4.42
2022-08-24T22:48:55.238Z,3.27
2022-08-24T22:51:26.481Z,6.37
2022-08-24T22:53:57.722Z,3.80
2022-08-24T22:56:31.512Z,5.85
2022-08-24T22:59:04.210Z,4.87
2022-08-24T23:01:37.760Z,4.20
2022-08-24T23:04:11.233Z,4.67
2022-08-24T23:06:42.373Z,5.62
2022-08-24T23:09:13.852Z,5.17
2022-08-24T23:11:45.584Z,5.65
2022-08-24T23:14:17.635Z,5.28
2022-08-24T23:16:49.918Z,8.15
2022-08-24T23:19:24.643Z,5.55
2022-08-24T23:21:56.146Z,7.35
2022-08-24T23:24:27.732Z,5.55
2022-08-24T23:26:58.707Z,5.45
2022-08-24T23:29:29.792Z,6.42
2022-08-24T23:32:01.069Z,5.47
2022-08-24T23:34:32.414Z,7.25
2022-08-24T23:37:04.095Z,7.35
2022-08-24T23:39:35.306Z,7.83
2022-08-24T23:42:07.227Z,5.12
2022-08-24T23:44:38.870Z,6.47
2022-08-24T23:47:10.402Z,7.78
2022-08-24T23:49:42.954Z,6.70
2022-08-24T23:52:28.447Z,7.80
2022-08-24T23:54:45.968Z,8.20
2022-08-24T23:57:16.872Z,10.38
2022-08-24T23:59:47.837Z,6.85
